DTTF/GAF METAR and TAF weather

Enter ICAO airport designator
Station Type Date Time Source
DTTF METAR 2022/05/24 11:00 UTC NOAA

DTTF 241100Z 23014KT CAVOK 36/M02 Q1011 NOSIG


Station Type Date Time Source
DTTF Decoded METAR 2022/05/24 11:00 UTC NOAA

Gafsa, Tunisia (DTTF) 34-25N 008-49E 314M
May 24, 2022 - 07:00 AM EDT / 2022.05.24 1100 UTC
Wind: from the SW (230 degrees) at 16 MPH (14 KT):0
Visibility: greater than 7 mile(s):0
Temperature: 96 F (36 C)
Dew Point: 28 F (-2 C)
Relative Humidity: 8%
Pressure (altimeter): 29.85 in. Hg (1011 hPa)
ob: DTTF 241100Z 23014KT CAVOK 36/M02 Q1011 NOSIG
cycle: 11

Station Type Date Time Source
DTTF TAF 2022/02/16 10:30 UTC NOAA

TAF DTTF 160900Z 1610/1622 VRB03KT 9999 FEW033
BECMG 1610/1612 22010KT
BECMG 1619/1621 28005KT

Example: see airport list